TimeMST,TemperatureF,Dew PointF,Humidity,Sea Level PressureIn,VisibilityMPH,Wind Direction,Wind SpeedMPH,Gust SpeedMPH,PrecipitationIn,Events,Conditions,WindDirDegrees,DateUTC
12:55 AM,19.9,-4.0,35,30.55,10.0,WSW,3.5,-,N/A,,Clear,250,2013-01-21 07:55:00
1:55 AM,3.0,-7.1,63,30.60,10.0,WNW,3.5,-,N/A,,Clear,300,2013-01-21 08:55:00
2:55 AM,5.0,-5.1,63,30.61,10.0,Calm,Calm,-,N/A,,Clear,0,2013-01-21 09:55:00
3:55 AM,1.9,-5.1,72,30.61,7.0,Calm,Calm,-,N/A,,Clear,0,2013-01-21 10:55:00
4:55 AM,6.1,-7.1,55,30.57,10.0,Calm,Calm,-,N/A,,Clear,0,2013-01-21 11:55:00
5:55 AM,-0.0,-9.0,66,30.62,10.0,Calm,Calm,-,N/A,,Clear,0,2013-01-21 12:55:00
6:55 AM,14.0,-8.0,37,30.56,10.0,Calm,Calm,-,N/A,,Clear,0,2013-01-21 13:55:00
7:55 AM,3.9,-11.9,48,30.61,10.0,Calm,Calm,-,N/A,,Clear,0,2013-01-21 14:55:00
8:55 AM,6.1,-4.0,63,30.66,6.0,Calm,Calm,-,N/A,,Haze,0,2013-01-21 15:55:00
9:46 AM,10.4,-4.0,52,30.42,2.0,Calm,Calm,-,N/A,,Haze,0,2013-01-21 16:46:00
9:55 AM,10.0,-4.0,53,30.61,2.5,Calm,Calm,-,N/A,,Haze,0,2013-01-21 16:55:00
10:26 AM,15.8,-0.4,49,30.41,3.0,Calm,Calm,-,N/A,,Haze,0,2013-01-21 17:26:00
10:55 AM,14.0,-0.9,52,30.63,5.0,Calm,Calm,-,N/A,,Haze,0,2013-01-21 17:55:00
11:55 AM,21.0,1.9,44,30.59,7.0,Calm,Calm,-,N/A,,Clear,0,2013-01-21 18:55:00
12:55 PM,24.1,3.0,40,30.49,9.0,North,3.5,-,N/A,,Clear,10,2013-01-21 19:55:00
1:55 PM,30.0,6.1,36,30.49,10.0,Calm,Calm,-,N/A,,Clear,0,2013-01-21 20:55:00
2:55 PM,28.9,6.1,38,30.47,10.0,Calm,Calm,-,N/A,,Clear,0,2013-01-21 21:55:00
4:55 PM,33.1,1.9,27,30.43,10.0,Calm,Calm,-,N/A,,Clear,0,2013-01-21 23:55:00
5:55 PM,24.1,-2.0,32,30.48,10.0,Calm,Calm,-,N/A,,Clear,0,2013-01-22 00:55:00
6:55 PM,21.0,-2.0,36,30.44,10.0,Calm,Calm,-,N/A,,Clear,0,2013-01-22 01:55:00
7:55 PM,14.0,-0.9,52,30.51,10.0,Calm,Calm,-,N/A,,Clear,0,2013-01-22 02:55:00
8:55 PM,14.0,-4.0,45,30.51,10.0,Calm,Calm,-,N/A,,Clear,0,2013-01-22 03:55:00
9:55 PM,19.0,-2.9,38,30.48,10.0,Calm,Calm,-,N/A,,Clear,0,2013-01-22 04:55:00
10:55 PM,6.1,-4.0,63,30.52,10.0,Calm,Calm,-,N/A,,Clear,0,2013-01-22 05:55:00